sensor_id;sensor_type;location;lat;lon;timestamp;temperature;humidity
69382;DHT22;56560;50.692;12.844;2022-10-30T00:00:26;11.80;86.30
69382;DHT22;56560;50.692;12.844;2022-10-30T00:02:52;11.80;85.10
69382;DHT22;56560;50.692;12.844;2022-10-30T00:05:18;11.70;85.90
69382;DHT22;56560;50.692;12.844;2022-10-30T00:07:46;11.60;85.40
69382;DHT22;56560;50.692;12.844;2022-10-30T00:10:11;11.60;85.70
69382;DHT22;56560;50.692;12.844;2022-10-30T00:12:37;11.50;84.90
69382;DHT22;56560;50.692;12.844;2022-10-30T00:15:03;11.50;85.80
69382;DHT22;56560;50.692;12.844;2022-10-30T00:17:29;11.50;85.10
69382;DHT22;56560;50.692;12.844;2022-10-30T00:19:54;11.40;84.80
69382;DHT22;56560;50.692;12.844;2022-10-30T00:22:20;11.30;85.10
69382;DHT22;56560;50.692;12.844;2022-10-30T00:24:45;11.20;85.10
69382;DHT22;56560;50.692;12.844;2022-10-30T00:27:11;11.10;85.90
69382;DHT22;56560;50.692;12.844;2022-10-30T00:29:37;11.00;86.10
69382;DHT22;56560;50.692;12.844;2022-10-30T00:32:02;11.00;87.20
69382;DHT22;56560;50.692;12.844;2022-10-30T00:34:28;11.00;86.70
69382;DHT22;56560;50.692;12.844;2022-10-30T00:36:54;11.00;86.90
69382;DHT22;56560;50.692;12.844;2022-10-30T00:39:19;11.00;87.70
69382;DHT22;56560;50.692;12.844;2022-10-30T00:41:45;11.00;87.10
69382;DHT22;56560;50.692;12.844;2022-10-30T00:44:36;11.00;86.40
69382;DHT22;56560;50.692;12.844;2022-10-30T00:47:09;10.90;85.70
69382;DHT22;56560;50.692;12.844;2022-10-30T00:49:40;10.80;85.80
69382;DHT22;56560;50.692;12.844;2022-10-30T00:52:09;10.70;86.40
69382;DHT22;56560;50.692;12.844;2022-10-30T00:54:35;10.70;86.30
69382;DHT22;56560;50.692;12.844;2022-10-30T00:57:04;10.60;87.10
69382;DHT22;56560;50.692;12.844;2022-10-30T00:59:34;10.60;87.70
69382;DHT22;56560;50.692;12.844;2022-10-30T01:02:02;10.60;87.40
69382;DHT22;56560;50.692;12.844;2022-10-30T01:04:29;10.60;86.40
69382;DHT22;56560;50.692;12.844;2022-10-30T01:06:57;10.50;87.50
69382;DHT22;56560;50.692;12.844;2022-10-30T01:09:24;10.40;87.70
69382;DHT22;56560;50.692;12.844;2022-10-30T01:11:49;10.40;88.30
69382;DHT22;56560;50.692;12.844;2022-10-30T01:14:17;10.40;87.80
69382;DHT22;56560;50.692;12.844;2022-10-30T01:19:42;10.30;87.70
69382;DHT22;56560;50.692;12.844;2022-10-30T01:27:54;10.30;87.80
69382;DHT22;56560;50.692;12.844;2022-10-30T01:36:19;10.40;86.40
69382;DHT22;56560;50.692;12.844;2022-10-30T01:38:51;10.40;86.20
69382;DHT22;56560;50.692;12.844;2022-10-30T01:41:18;10.30;87.10
69382;DHT22;56560;50.692;12.844;2022-10-30T01:43:46;10.30;87.70
69382;DHT22;56560;50.692;12.844;2022-10-30T01:57:43;10.40;86.30
69382;DHT22;56560;50.692;12.844;2022-10-30T02:00:13;10.50;86.30
69382;DHT22;56560;50.692;12.844;2022-10-30T02:02:40;10.60;86.30
69382;DHT22;56560;50.692;12.844;2022-10-30T02:05:08;10.70;85.70
69382;DHT22;56560;50.692;12.844;2022-10-30T02:07:35;10.80;86.20
69382;DHT22;56560;50.692;12.844;2022-10-30T02:10:01;10.90;85.20
69382;DHT22;56560;50.692;12.844;2022-10-30T02:12:27;10.90;84.50
69382;DHT22;56560;50.692;12.844;2022-10-30T02:14:57;11.00;85.30
69382;DHT22;56560;50.692;12.844;2022-10-30T02:17:23;11.10;84.70
69382;DHT22;56560;50.692;12.844;2022-10-30T02:19:49;11.10;84.20
69382;DHT22;56560;50.692;12.844;2022-10-30T02:22:15;11.10;83.90
69382;DHT22;56560;50.692;12.844;2022-10-30T02:24:42;11.10;84.00
69382;DHT22;56560;50.692;12.844;2022-10-30T02:27:08;11.10;84.70
69382;DHT22;56560;50.692;12.844;2022-10-30T02:29:34;11.00;84.90
69382;DHT22;56560;50.692;12.844;2022-10-30T02:32:00;10.90;85.10
69382;DHT22;56560;50.692;12.844;2022-10-30T02:34:25;11.00;85.30
69382;DHT22;56560;50.692;12.844;2022-10-30T02:36:51;11.00;85.10
69382;DHT22;56560;50.692;12.844;2022-10-30T02:39:17;11.10;84.90
69382;DHT22;56560;50.692;12.844;2022-10-30T02:41:44;11.10;84.70
69382;DHT22;56560;50.692;12.844;2022-10-30T02:44:10;11.30;83.80
69382;DHT22;56560;50.692;12.844;2022-10-30T02:46:35;11.40;83.40
69382;DHT22;56560;50.692;12.844;2022-10-30T02:49:01;11.50;82.80
69382;DHT22;56560;50.692;12.844;2022-10-30T02:51:27;11.60;82.30
69382;DHT22;56560;50.692;12.844;2022-10-30T02:53:53;11.70;81.80
69382;DHT22;56560;50.692;12.844;2022-10-30T02:56:18;11.90;81.10
69382;DHT22;56560;50.692;12.844;2022-10-30T02:58:44;12.00;80.50
69382;DHT22;56560;50.692;12.844;2022-10-30T03:01:15;12.00;80.20
69382;DHT22;56560;50.692;12.844;2022-10-30T03:03:41;12.00;80.50
69382;DHT22;56560;50.692;12.844;2022-10-30T03:06:09;12.00;80.10
69382;DHT22;56560;50.692;12.844;2022-10-30T03:08:36;11.90;80.40
69382;DHT22;56560;50.692;12.844;2022-10-30T03:11:04;11.90;80.70
69382;DHT22;56560;50.692;12.844;2022-10-30T03:13:32;11.80;80.80
69382;DHT22;56560;50.692;12.844;2022-10-30T03:16:05;11.90;80.80
69382;DHT22;56560;50.692;12.844;2022-10-30T03:18:32;11.80;80.90
69382;DHT22;56560;50.692;12.844;2022-10-30T03:20:59;11.70;81.30
69382;DHT22;56560;50.692;12.844;2022-10-30T03:23:26;11.70;82.10
69382;DHT22;56560;50.692;12.844;2022-10-30T03:25:53;11.50;82.60
69382;DHT22;56560;50.692;12.844;2022-10-30T03:28:20;11.40;82.50
69382;DHT22;56560;50.692;12.844;2022-10-30T03:30:46;11.30;83.30
69382;DHT22;56560;50.692;12.844;2022-10-30T03:33:12;11.30;83.40
69382;DHT22;56560;50.692;12.844;2022-10-30T03:35:38;11.30;82.80
69382;DHT22;56560;50.692;12.844;2022-10-30T03:38:03;11.40;82.50
69382;DHT22;56560;50.692;12.844;2022-10-30T03:40:29;11.40;82.10
69382;DHT22;56560;50.692;12.844;2022-10-30T03:42:54;11.50;82.20
69382;DHT22;56560;50.692;12.844;2022-10-30T03:45:20;11.50;81.90
69382;DHT22;56560;50.692;12.844;2022-10-30T03:47:46;11.50;82.70
69382;DHT22;56560;50.692;12.844;2022-10-30T03:50:11;11.60;81.70
69382;DHT22;56560;50.692;12.844;2022-10-30T03:52:37;11.60;82.30
69382;DHT22;56560;50.692;12.844;2022-10-30T03:55:03;11.60;81.40
69382;DHT22;56560;50.692;12.844;2022-10-30T03:57:28;11.70;80.90
69382;DHT22;56560;50.692;12.844;2022-10-30T03:59:54;11.70;81.20
69382;DHT22;56560;50.692;12.844;2022-10-30T04:02:19;11.70;81.60
69382;DHT22;56560;50.692;12.844;2022-10-30T04:04:45;11.60;81.80
69382;DHT22;56560;50.692;12.844;2022-10-30T04:07:11;11.40;82.70
69382;DHT22;56560;50.692;12.844;2022-10-30T04:09:36;11.40;82.40
69382;DHT22;56560;50.692;12.844;2022-10-30T04:12:02;11.50;82.40
69382;DHT22;56560;50.692;12.844;2022-10-30T04:14:28;11.50;82.50
69382;DHT22;56560;50.692;12.844;2022-10-30T04:16:54;11.50;82.20
69382;DHT22;56560;50.692;12.844;2022-10-30T04:19:20;11.70;81.30
69382;DHT22;56560;50.692;12.844;2022-10-30T04:21:45;12.00;80.10
69382;DHT22;56560;50.692;12.844;2022-10-30T04:24:12;12.20;79.10
69382;DHT22;56560;50.692;12.844;2022-10-30T04:26:40;12.40;78.40
69382;DHT22;56560;50.692;12.844;2022-10-30T04:29:06;12.60;78.20
69382;DHT22;56560;50.692;12.844;2022-10-30T04:31:31;12.70;77.00
69382;DHT22;56560;50.692;12.844;2022-10-30T04:33:57;13.00;76.60
69382;DHT22;56560;50.692;12.844;2022-10-30T04:36:23;13.00;75.80
69382;DHT22;56560;50.692;12.844;2022-10-30T04:38:54;13.10;75.50
69382;DHT22;56560;50.692;12.844;2022-10-30T04:41:20;13.10;75.40
69382;DHT22;56560;50.692;12.844;2022-10-30T04:43:48;13.10;75.50
69382;DHT22;56560;50.692;12.844;2022-10-30T04:46:14;13.10;75.50
69382;DHT22;56560;50.692;12.844;2022-10-30T04:48:41;13.10;75.10
69382;DHT22;56560;50.692;12.844;2022-10-30T04:51:07;13.10;75.80
69382;DHT22;56560;50.692;12.844;2022-10-30T04:53:34;13.00;75.80
69382;DHT22;56560;50.692;12.844;2022-10-30T04:56:00;13.00;76.60
69382;DHT22;56560;50.692;12.844;2022-10-30T04:58:25;12.90;76.70
69382;DHT22;56560;50.692;12.844;2022-10-30T05:00:51;12.80;77.20
69382;DHT22;56560;50.692;12.844;2022-10-30T05:03:21;12.70;77.30
69382;DHT22;56560;50.692;12.844;2022-10-30T05:06:04;12.70;77.60
69382;DHT22;56560;50.692;12.844;2022-10-30T05:08:32;12.60;78.10
69382;DHT22;56560;50.692;12.844;2022-10-30T05:10:57;12.50;78.10
69382;DHT22;56560;50.692;12.844;2022-10-30T05:13:23;12.40;79.00
69382;DHT22;56560;50.692;12.844;2022-10-30T05:15:49;12.40;78.60
69382;DHT22;56560;50.692;12.844;2022-10-30T05:18:15;12.40;78.80
69382;DHT22;56560;50.692;12.844;2022-10-30T05:20:41;12.50;79.00
69382;DHT22;56560;50.692;12.844;2022-10-30T05:23:07;12.50;78.40
69382;DHT22;56560;50.692;12.844;2022-10-30T05:25:34;12.50;79.50
69382;DHT22;56560;50.692;12.844;2022-10-30T05:28:04;12.40;79.30
69382;DHT22;56560;50.692;12.844;2022-10-30T05:30:32;12.40;79.50
69382;DHT22;56560;50.692;12.844;2022-10-30T05:33:05;12.40;79.00
69382;DHT22;56560;50.692;12.844;2022-10-30T05:35:31;12.30;79.50
69382;DHT22;56560;50.692;12.844;2022-10-30T05:38:02;12.40;79.10
69382;DHT22;56560;50.692;12.844;2022-10-30T05:40:28;12.50;79.10
69382;DHT22;56560;50.692;12.844;2022-10-30T05:42:53;12.50;79.10
69382;DHT22;56560;50.692;12.844;2022-10-30T05:45:19;12.50;79.10
69382;DHT22;56560;50.692;12.844;2022-10-30T05:48:05;12.60;78.70
69382;DHT22;56560;50.692;12.844;2022-10-30T05:50:31;12.60;79.00
69382;DHT22;56560;50.692;12.844;2022-10-30T05:52:59;12.70;78.00
69382;DHT22;56560;50.692;12.844;2022-10-30T05:55:25;12.70;78.10
69382;DHT22;56560;50.692;12.844;2022-10-30T05:58:02;12.80;78.10
69382;DHT22;56560;50.692;12.844;2022-10-30T06:00:34;12.90;77.50
69382;DHT22;56560;50.692;12.844;2022-10-30T06:05:26;13.00;77.00
69382;DHT22;56560;50.692;12.844;2022-10-30T06:07:54;13.10;76.70
69382;DHT22;56560;50.692;12.844;2022-10-30T06:10:21;13.10;76.50
69382;DHT22;56560;50.692;12.844;2022-10-30T06:13:01;13.10;76.60
69382;DHT22;56560;50.692;12.844;2022-10-30T06:15:28;13.10;76.70
69382;DHT22;56560;50.692;12.844;2022-10-30T06:17:54;13.20;76.20
69382;DHT22;56560;50.692;12.844;2022-10-30T06:20:21;13.30;75.90
69382;DHT22;56560;50.692;12.844;2022-10-30T06:23:00;13.40;76.10
69382;DHT22;56560;50.692;12.844;2022-10-30T06:25:27;13.40;76.10
69382;DHT22;56560;50.692;12.844;2022-10-30T06:27:53;13.40;76.40
69382;DHT22;56560;50.692;12.844;2022-10-30T06:30:20;13.50;76.30
69382;DHT22;56560;50.692;12.844;2022-10-30T06:32:46;13.50;76.20
69382;DHT22;56560;50.692;12.844;2022-10-30T06:35:12;13.50;76.50
69382;DHT22;56560;50.692;12.844;2022-10-30T06:37:43;13.50;76.50
69382;DHT22;56560;50.692;12.844;2022-10-30T06:40:09;13.50;76.90
69382;DHT22;56560;50.692;12.844;2022-10-30T06:42:45;13.60;76.20
69382;DHT22;56560;50.692;12.844;2022-10-30T06:45:12;13.60;76.30
69382;DHT22;56560;50.692;12.844;2022-10-30T06:47:38;13.50;76.60
69382;DHT22;56560;50.692;12.844;2022-10-30T06:50:05;13.50;76.10
69382;DHT22;56560;50.692;12.844;2022-10-30T06:52:32;13.60;76.50
69382;DHT22;56560;50.692;12.844;2022-10-30T06:54:57;13.70;76.00
69382;DHT22;56560;50.692;12.844;2022-10-30T06:57:23;13.80;76.10
69382;DHT22;56560;50.692;12.844;2022-10-30T06:59:48;13.80;76.90
69382;DHT22;56560;50.692;12.844;2022-10-30T07:02:14;13.90;76.40
69382;DHT22;56560;50.692;12.844;2022-10-30T07:04:40;14.00;76.00
69382;DHT22;56560;50.692;12.844;2022-10-30T07:07:06;14.10;75.50
69382;DHT22;56560;50.692;12.844;2022-10-30T07:09:31;14.20;74.80
69382;DHT22;56560;50.692;12.844;2022-10-30T07:11:57;14.30;73.80
69382;DHT22;56560;50.692;12.844;2022-10-30T07:14:23;14.50;74.90
69382;DHT22;56560;50.692;12.844;2022-10-30T07:16:48;14.60;74.90
69382;DHT22;56560;50.692;12.844;2022-10-30T07:19:14;14.60;74.10
69382;DHT22;56560;50.692;12.844;2022-10-30T07:21:40;14.70;73.60
69382;DHT22;56560;50.692;12.844;2022-10-30T07:24:06;14.70;74.50
69382;DHT22;56560;50.692;12.844;2022-10-30T07:26:32;14.80;74.20
69382;DHT22;56560;50.692;12.844;2022-10-30T07:29:02;14.80;74.10
69382;DHT22;56560;50.692;12.844;2022-10-30T07:31:28;14.90;73.40
69382;DHT22;56560;50.692;12.844;2022-10-30T07:33:54;14.90;73.00
69382;DHT22;56560;50.692;12.844;2022-10-30T07:36:20;14.90;73.30
69382;DHT22;56560;50.692;12.844;2022-10-30T07:38:47;14.90;73.80
69382;DHT22;56560;50.692;12.844;2022-10-30T07:41:13;14.90;74.10
69382;DHT22;56560;50.692;12.844;2022-10-30T07:43:38;14.80;74.50
69382;DHT22;56560;50.692;12.844;2022-10-30T07:46:04;14.80;74.70
69382;DHT22;56560;50.692;12.844;2022-10-30T07:48:30;14.90;74.90
69382;DHT22;56560;50.692;12.844;2022-10-30T07:50:55;14.90;74.70
69382;DHT22;56560;50.692;12.844;2022-10-30T07:53:21;15.00;74.60
69382;DHT22;56560;50.692;12.844;2022-10-30T07:55:46;15.10;73.80
69382;DHT22;56560;50.692;12.844;2022-10-30T07:58:12;15.20;72.70
69382;DHT22;56560;50.692;12.844;2022-10-30T08:00:38;15.30;72.80
69382;DHT22;56560;50.692;12.844;2022-10-30T08:03:03;15.40;72.20
69382;DHT22;56560;50.692;12.844;2022-10-30T08:05:29;15.40;73.00
69382;DHT22;56560;50.692;12.844;2022-10-30T08:07:54;15.50;72.70
69382;DHT22;56560;50.692;12.844;2022-10-30T08:10:20;15.60;72.60
69382;DHT22;56560;50.692;12.844;2022-10-30T08:12:46;15.70;72.40
69382;DHT22;56560;50.692;12.844;2022-10-30T08:15:12;15.70;71.70
69382;DHT22;56560;50.692;12.844;2022-10-30T08:17:46;15.80;71.60
69382;DHT22;56560;50.692;12.844;2022-10-30T08:20:14;16.00;71.90
69382;DHT22;56560;50.692;12.844;2022-10-30T08:25:17;16.10;71.80
69382;DHT22;56560;50.692;12.844;2022-10-30T08:28:01;16.00;72.20
69382;DHT22;56560;50.692;12.844;2022-10-30T08:30:30;16.00;72.00
69382;DHT22;56560;50.692;12.844;2022-10-30T08:32:57;16.00;72.30
69382;DHT22;56560;50.692;12.844;2022-10-30T08:35:24;15.90;73.00
69382;DHT22;56560;50.692;12.844;2022-10-30T08:37:50;15.90;73.20
69382;DHT22;56560;50.692;12.844;2022-10-30T08:40:18;16.00;73.10
69382;DHT22;56560;50.692;12.844;2022-10-30T08:42:50;16.10;72.90
69382;DHT22;56560;50.692;12.844;2022-10-30T08:45:16;16.30;72.60
69382;DHT22;56560;50.692;12.844;2022-10-30T08:47:42;16.50;72.40
69382;DHT22;56560;50.692;12.844;2022-10-30T08:50:07;16.70;72.20
69382;DHT22;56560;50.692;12.844;2022-10-30T08:52:33;16.90;72.10
69382;DHT22;56560;50.692;12.844;2022-10-30T08:54:59;17.00;71.70
69382;DHT22;56560;50.692;12.844;2022-10-30T08:57:25;17.10;71.60
69382;DHT22;56560;50.692;12.844;2022-10-30T08:59:51;17.30;70.90
69382;DHT22;56560;50.692;12.844;2022-10-30T09:02:16;17.40;70.50
69382;DHT22;56560;50.692;12.844;2022-10-30T09:04:42;17.50;68.40
69382;DHT22;56560;50.692;12.844;2022-10-30T09:07:07;17.70;68.20
69382;DHT22;56560;50.692;12.844;2022-10-30T09:09:33;17.90;68.00
69382;DHT22;56560;50.692;12.844;2022-10-30T09:11:59;18.10;67.00
69382;DHT22;56560;50.692;12.844;2022-10-30T09:14:24;18.30;66.70
69382;DHT22;56560;50.692;12.844;2022-10-30T09:16:50;18.60;65.50
69382;DHT22;56560;50.692;12.844;2022-10-30T09:19:16;18.90;65.40
69382;DHT22;56560;50.692;12.844;2022-10-30T09:21:41;19.20;63.60
69382;DHT22;56560;50.692;12.844;2022-10-30T09:24:08;19.40;62.60
69382;DHT22;56560;50.692;12.844;2022-10-30T09:26:33;19.50;63.40
69382;DHT22;56560;50.692;12.844;2022-10-30T09:28:59;19.50;63.00
69382;DHT22;56560;50.692;12.844;2022-10-30T09:31:24;19.60;62.10
69382;DHT22;56560;50.692;12.844;2022-10-30T09:33:50;19.70;62.20
69382;DHT22;56560;50.692;12.844;2022-10-30T09:36:17;19.90;60.80
69382;DHT22;56560;50.692;12.844;2022-10-30T09:38:42;20.10;59.00
69382;DHT22;56560;50.692;12.844;2022-10-30T09:42:14;20.30;58.10
69382;DHT22;56560;50.692;12.844;2022-10-30T09:52:28;20.90;56.90
69382;DHT22;56560;50.692;12.844;2022-10-30T10:01:10;21.60;55.80
69382;DHT22;56560;50.692;12.844;2022-10-30T10:03:48;21.70;54.70
69382;DHT22;56560;50.692;12.844;2022-10-30T10:06:18;21.90;54.90
69382;DHT22;56560;50.692;12.844;2022-10-30T10:08:51;22.00;53.70
69382;DHT22;56560;50.692;12.844;2022-10-30T10:11:23;22.20;52.60
69382;DHT22;56560;50.692;12.844;2022-10-30T10:14:03;22.40;51.20
69382;DHT22;56560;50.692;12.844;2022-10-30T10:16:35;22.50;49.90
69382;DHT22;56560;50.692;12.844;2022-10-30T10:21:55;22.70;50.10
69382;DHT22;56560;50.692;12.844;2022-10-30T10:24:35;22.80;50.00
69382;DHT22;56560;50.692;12.844;2022-10-30T10:30:15;23.00;48.80
69382;DHT22;56560;50.692;12.844;2022-10-30T10:38:20;23.30;47.50
69382;DHT22;56560;50.692;12.844;2022-10-30T10:43:36;23.40;46.00
69382;DHT22;56560;50.692;12.844;2022-10-30T10:51:59;23.90;46.30
69382;DHT22;56560;50.692;12.844;2022-10-30T10:54:31;24.00;46.10
69382;DHT22;56560;50.692;12.844;2022-10-30T10:56:59;24.10;46.20
69382;DHT22;56560;50.692;12.844;2022-10-30T11:04:46;24.50;45.10
69382;DHT22;56560;50.692;12.844;2022-10-30T11:07:43;24.60;45.60
69382;DHT22;56560;50.692;12.844;2022-10-30T11:10:14;24.80;42.70
69382;DHT22;56560;50.692;12.844;2022-10-30T11:12:41;24.80;42.60
69382;DHT22;56560;50.692;12.844;2022-10-30T11:15:37;25.00;42.80
69382;DHT22;56560;50.692;12.844;2022-10-30T11:18:07;25.10;42.20
69382;DHT22;56560;50.692;12.844;2022-10-30T11:23:02;25.80;40.70
69382;DHT22;56560;50.692;12.844;2022-10-30T11:25:37;26.40;39.30
69382;DHT22;56560;50.692;12.844;2022-10-30T11:28:04;26.90;39.30
69382;DHT22;56560;50.692;12.844;2022-10-30T11:30:30;27.50;37.40
69382;DHT22;56560;50.692;12.844;2022-10-30T11:32:57;28.00;37.20
69382;DHT22;56560;50.692;12.844;2022-10-30T11:35:23;28.20;37.10
69382;DHT22;56560;50.692;12.844;2022-10-30T11:37:51;28.60;37.00
69382;DHT22;56560;50.692;12.844;2022-10-30T11:40:35;29.00;36.90
69382;DHT22;56560;50.692;12.844;2022-10-30T11:43:02;29.20;35.50
69382;DHT22;56560;50.692;12.844;2022-10-30T11:45:32;29.70;36.30
69382;DHT22;56560;50.692;12.844;2022-10-30T11:47:59;30.10;34.80
69382;DHT22;56560;50.692;12.844;2022-10-30T11:50:28;30.30;35.00
69382;DHT22;56560;50.692;12.844;2022-10-30T11:52:56;30.30;34.50
69382;DHT22;56560;50.692;12.844;2022-10-30T11:55:30;30.50;34.40
69382;DHT22;56560;50.692;12.844;2022-10-30T11:57:58;30.10;34.90
69382;DHT22;56560;50.692;12.844;2022-10-30T12:00:25;29.90;35.20
69382;DHT22;56560;50.692;12.844;2022-10-30T12:02:52;29.80;35.20
69382;DHT22;56560;50.692;12.844;2022-10-30T12:07:50;29.50;36.60
69382;DHT22;56560;50.692;12.844;2022-10-30T12:10:29;29.80;35.40
69382;DHT22;56560;50.692;12.844;2022-10-30T12:12:55;30.40;35.20
69382;DHT22;56560;50.692;12.844;2022-10-30T12:15:25;30.90;34.60
69382;DHT22;56560;50.692;12.844;2022-10-30T12:18:20;31.40;33.90
69382;DHT22;56560;50.692;12.844;2022-10-30T12:20:49;31.80;33.60
69382;DHT22;56560;50.692;12.844;2022-10-30T12:23:20;32.30;33.40
69382;DHT22;56560;50.692;12.844;2022-10-30T12:25:51;32.70;33.10
69382;DHT22;56560;50.692;12.844;2022-10-30T12:28:23;33.10;32.50
69382;DHT22;56560;50.692;12.844;2022-10-30T12:30:55;33.50;31.40
69382;DHT22;56560;50.692;12.844;2022-10-30T12:33:26;33.40;32.10
69382;DHT22;56560;50.692;12.844;2022-10-30T12:35:56;33.40;31.60
69382;DHT22;56560;50.692;12.844;2022-10-30T12:41:32;33.20;32.30
69382;DHT22;56560;50.692;12.844;2022-10-30T12:46:41;33.30;30.90
69382;DHT22;56560;50.692;12.844;2022-10-30T12:49:30;33.20;31.50
69382;DHT22;56560;50.692;12.844;2022-10-30T12:52:20;33.10;31.00
69382;DHT22;56560;50.692;12.844;2022-10-30T12:57:21;33.70;29.90
69382;DHT22;56560;50.692;12.844;2022-10-30T13:03:18;33.80;29.60
69382;DHT22;56560;50.692;12.844;2022-10-30T13:05:54;33.70;29.30
69382;DHT22;56560;50.692;12.844;2022-10-30T13:08:36;33.80;29.90
69382;DHT22;56560;50.692;12.844;2022-10-30T13:13:43;33.90;28.80
69382;DHT22;56560;50.692;12.844;2022-10-30T13:16:28;33.90;29.20
69382;DHT22;56560;50.692;12.844;2022-10-30T13:19:01;34.10;30.00
69382;DHT22;56560;50.692;12.844;2022-10-30T13:27:12;34.40;28.70
69382;DHT22;56560;50.692;12.844;2022-10-30T13:30:03;34.30;27.60
69382;DHT22;56560;50.692;12.844;2022-10-30T13:33:11;34.00;27.40
69382;DHT22;56560;50.692;12.844;2022-10-30T13:35:58;33.90;28.30
69382;DHT22;56560;50.692;12.844;2022-10-30T13:52:11;33.90;29.90
69382;DHT22;56560;50.692;12.844;2022-10-30T13:55:01;33.70;29.80
69382;DHT22;56560;50.692;12.844;2022-10-30T14:00:04;33.50;30.00
69382;DHT22;56560;50.692;12.844;2022-10-30T14:05:18;33.00;30.30
69382;DHT22;56560;50.692;12.844;2022-10-30T14:10:46;30.60;33.30
69382;DHT22;56560;50.692;12.844;2022-10-30T14:16:10;28.20;37.40
69382;DHT22;56560;50.692;12.844;2022-10-30T14:19:03;27.30;38.60
69382;DHT22;56560;50.692;12.844;2022-10-30T14:24:31;25.90;39.40
69382;DHT22;56560;50.692;12.844;2022-10-30T14:31:59;24.50;43.50
69382;DHT22;56560;50.692;12.844;2022-10-30T14:39:48;23.40;45.60
69382;DHT22;56560;50.692;12.844;2022-10-30T14:45:08;22.80;47.10
69382;DHT22;56560;50.692;12.844;2022-10-30T14:47:58;22.50;46.40
69382;DHT22;56560;50.692;12.844;2022-10-30T14:58:42;21.20;49.90
69382;DHT22;56560;50.692;12.844;2022-10-30T15:04:20;20.60;51.70
69382;DHT22;56560;50.692;12.844;2022-10-30T15:12:04;19.60;56.10
69382;DHT22;56560;50.692;12.844;2022-10-30T15:14:41;19.40;56.20
69382;DHT22;56560;50.692;12.844;2022-10-30T15:17:37;19.10;57.20
69382;DHT22;56560;50.692;12.844;2022-10-30T15:20:13;18.80;57.70
69382;DHT22;56560;50.692;12.844;2022-10-30T15:22:40;18.60;57.90
69382;DHT22;56560;50.692;12.844;2022-10-30T15:25:15;18.40;58.00
69382;DHT22;56560;50.692;12.844;2022-10-30T15:27:45;18.20;60.40
69382;DHT22;56560;50.692;12.844;2022-10-30T15:30:19;17.90;61.10
69382;DHT22;56560;50.692;12.844;2022-10-30T15:32:44;17.70;62.10
69382;DHT22;56560;50.692;12.844;2022-10-30T15:38:09;17.30;62.70
69382;DHT22;56560;50.692;12.844;2022-10-30T15:40:36;17.10;63.20
69382;DHT22;56560;50.692;12.844;2022-10-30T15:43:04;17.00;63.30
69382;DHT22;56560;50.692;12.844;2022-10-30T15:45:40;16.90;64.80
69382;DHT22;56560;50.692;12.844;2022-10-30T15:48:25;16.70;66.40
69382;DHT22;56560;50.692;12.844;2022-10-30T15:51:04;16.50;66.80
69382;DHT22;56560;50.692;12.844;2022-10-30T15:53:43;16.20;67.80
69382;DHT22;56560;50.692;12.844;2022-10-30T15:56:21;16.10;68.20
69382;DHT22;56560;50.692;12.844;2022-10-30T15:58:51;16.00;69.40
69382;DHT22;56560;50.692;12.844;2022-10-30T16:01:45;15.90;70.30
69382;DHT22;56560;50.692;12.844;2022-10-30T16:04:19;15.80;70.60
69382;DHT22;56560;50.692;12.844;2022-10-30T16:07:21;15.80;71.60
69382;DHT22;56560;50.692;12.844;2022-10-30T16:09:55;15.70;71.70
69382;DHT22;56560;50.692;12.844;2022-10-30T16:12:26;15.60;71.60
69382;DHT22;56560;50.692;12.844;2022-10-30T16:14:53;15.40;72.40
69382;DHT22;56560;50.692;12.844;2022-10-30T16:17:20;15.20;72.90
69382;DHT22;56560;50.692;12.844;2022-10-30T16:19:49;15.20;72.10
69382;DHT22;56560;50.692;12.844;2022-10-30T16:22:36;15.10;73.30
69382;DHT22;56560;50.692;12.844;2022-10-30T16:25:07;14.90;72.00
69382;DHT22;56560;50.692;12.844;2022-10-30T16:27:33;14.70;72.60
69382;DHT22;56560;50.692;12.844;2022-10-30T16:30:12;14.60;74.20
69382;DHT22;56560;50.692;12.844;2022-10-30T16:32:39;14.50;75.80
69382;DHT22;56560;50.692;12.844;2022-10-30T16:35:06;14.40;74.20
69382;DHT22;56560;50.692;12.844;2022-10-30T16:37:34;14.30;74.90
69382;DHT22;56560;50.692;12.844;2022-10-30T16:40:09;14.30;75.90
69382;DHT22;56560;50.692;12.844;2022-10-30T16:42:36;14.20;75.50
69382;DHT22;56560;50.692;12.844;2022-10-30T16:47:37;14.00;76.40
69382;DHT22;56560;50.692;12.844;2022-10-30T16:50:05;14.00;75.90
69382;DHT22;56560;50.692;12.844;2022-10-30T16:52:35;14.00;76.10
69382;DHT22;56560;50.692;12.844;2022-10-30T16:57:34;13.80;76.50
69382;DHT22;56560;50.692;12.844;2022-10-30T17:00:02;13.70;77.20
69382;DHT22;56560;50.692;12.844;2022-10-30T17:02:31;13.60;77.20
69382;DHT22;56560;50.692;12.844;2022-10-30T17:07:26;13.60;77.00
69382;DHT22;56560;50.692;12.844;2022-10-30T17:09:54;13.50;77.80
69382;DHT22;56560;50.692;12.844;2022-10-30T17:12:25;13.50;77.80
69382;DHT22;56560;50.692;12.844;2022-10-30T17:14:54;13.50;77.10
69382;DHT22;56560;50.692;12.844;2022-10-30T17:17:31;13.50;76.50
69382;DHT22;56560;50.692;12.844;2022-10-30T17:20:00;13.50;76.50
69382;DHT22;56560;50.692;12.844;2022-10-30T17:22:27;13.60;75.90
69382;DHT22;56560;50.692;12.844;2022-10-30T17:24:53;13.70;75.80
69382;DHT22;56560;50.692;12.844;2022-10-30T17:27:42;13.70;75.70
69382;DHT22;56560;50.692;12.844;2022-10-30T17:32:53;13.60;76.30
69382;DHT22;56560;50.692;12.844;2022-10-30T17:35:19;13.70;75.60
69382;DHT22;56560;50.692;12.844;2022-10-30T17:37:45;13.70;73.90
69382;DHT22;56560;50.692;12.844;2022-10-30T17:40:12;13.80;73.90
69382;DHT22;56560;50.692;12.844;2022-10-30T17:42:38;13.80;74.80
69382;DHT22;56560;50.692;12.844;2022-10-30T17:45:05;13.70;74.80
69382;DHT22;56560;50.692;12.844;2022-10-30T17:47:31;13.60;74.90
69382;DHT22;56560;50.692;12.844;2022-10-30T17:49:57;13.50;74.80
69382;DHT22;56560;50.692;12.844;2022-10-30T17:52:23;13.40;75.20
69382;DHT22;56560;50.692;12.844;2022-10-30T17:54:49;13.30;74.90
69382;DHT22;56560;50.692;12.844;2022-10-30T17:57:15;13.30;74.50
69382;DHT22;56560;50.692;12.844;2022-10-30T17:59:41;13.30;73.80
69382;DHT22;56560;50.692;12.844;2022-10-30T18:02:13;13.30;74.40
69382;DHT22;56560;50.692;12.844;2022-10-30T18:04:39;13.30;73.90
69382;DHT22;56560;50.692;12.844;2022-10-30T18:07:11;13.30;73.00
69382;DHT22;56560;50.692;12.844;2022-10-30T18:09:37;13.40;72.40
69382;DHT22;56560;50.692;12.844;2022-10-30T18:12:04;13.50;71.80
69382;DHT22;56560;50.692;12.844;2022-10-30T18:14:31;13.50;71.50